createdAt,value
2018-04-01T00:02:08.962Z,73.67
2018-04-01T00:04:36.759Z,73.58
2018-04-01T00:07:04.569Z,73.69
2018-04-01T00:09:32.370Z,73.66
2018-04-01T00:12:00.587Z,73.65
2018-04-01T00:14:28.390Z,73.57
2018-04-01T00:16:56.205Z,73.42
2018-04-01T00:19:24.036Z,73.27
2018-04-01T00:21:52.239Z,73.39
2018-04-01T00:24:20.604Z,73.46
2018-04-01T00:26:49.059Z,73.59
2018-04-01T00:29:16.858Z,73.32
2018-04-01T00:31:44.666Z,72.99
2018-04-01T00:34:12.668Z,73.00
2018-04-01T00:36:40.555Z,73.18
2018-04-01T00:39:08.512Z,73.12
2018-04-01T00:41:36.999Z,73.17
2018-04-01T00:44:05.215Z,72.96
2018-04-01T00:46:33.037Z,73.15
2018-04-01T00:49:01.250Z,73.27
2018-04-01T00:51:29.059Z,73.34
2018-04-01T00:53:56.863Z,73.39
2018-04-01T00:56:24.683Z,73.56
2018-04-01T00:58:52.500Z,73.40
2018-04-01T01:01:20.316Z,73.49
2018-04-01T01:03:48.122Z,73.43
2018-04-01T01:06:15.929Z,73.67
2018-04-01T01:08:43.738Z,73.97
2018-04-01T01:11:11.966Z,74.03
2018-04-01T01:13:39.827Z,74.26
2018-04-01T01:16:07.640Z,74.41
2018-04-01T01:18:35.853Z,74.45
2018-04-01T01:21:03.658Z,74.49
2018-04-01T01:23:31.461Z,74.50
2018-04-01T01:25:59.665Z,74.50
2018-04-01T01:28:27.461Z,74.62
2018-04-01T01:30:55.273Z,74.39
2018-04-01T01:33:23.109Z,74.50
2018-04-01T01:35:51.090Z,74.62
2018-04-01T01:38:20.088Z,74.56
2018-04-01T01:40:48.267Z,74.75
2018-04-01T01:43:16.478Z,74.78
2018-04-01T01:45:44.275Z,74.90
2018-04-01T01:48:12.110Z,74.98
2018-04-01T01:50:39.922Z,74.85
2018-04-01T01:53:07.502Z,74.96
2018-04-01T01:55:35.469Z,75.13
2018-04-01T01:58:03.425Z,75.30
2018-04-01T02:00:31.409Z,75.24
2018-04-01T02:02:59.601Z,75.10
2018-04-01T02:05:27.168Z,75.52
2018-04-01T02:07:55.206Z,75.54
2018-04-01T02:10:23.418Z,75.73
2018-04-01T02:12:50.992Z,75.70
2018-04-01T02:15:18.808Z,75.67
2018-04-01T02:17:47.033Z,75.95
2018-04-01T02:20:14.794Z,75.85
2018-04-01T02:22:42.598Z,75.93
2018-04-01T02:25:10.428Z,75.75
2018-04-01T02:27:38.292Z,75.73
2018-04-01T02:30:06.109Z,75.88
2018-04-01T02:32:34.131Z,75.71
2018-04-01T02:35:01.709Z,75.86
2018-04-01T02:37:30.574Z,76.14
2018-04-01T02:39:58.402Z,76.16
2018-04-01T02:42:26.609Z,76.39
2018-04-01T02:44:54.408Z,76.51
2018-04-01T02:47:22.215Z,76.43
2018-04-01T02:49:50.380Z,76.46
2018-04-01T02:52:18.590Z,76.48
2018-04-01T02:54:46.614Z,76.66
2018-04-01T02:57:14.441Z,76.76
2018-04-01T02:59:42.308Z,76.96
2018-04-01T03:02:10.113Z,76.89
2018-04-01T03:04:37.927Z,76.72
2018-04-01T03:07:06.317Z,76.78
2018-04-01T03:09:34.135Z,76.85
2018-04-01T03:12:02.112Z,76.86
2018-04-01T03:14:30.319Z,77.21
2018-04-01T03:16:58.147Z,77.25
2018-04-01T03:19:26.344Z,77.13
2018-04-01T03:21:54.155Z,77.06
2018-04-01T03:24:21.959Z,77.40
2018-04-01T03:26:50.156Z,77.25
2018-04-01T03:29:17.953Z,77.36
2018-04-01T03:31:45.827Z,77.19
2018-04-01T03:34:13.763Z,77.24
2018-04-01T03:36:41.558Z,77.34
2018-04-01T03:39:09.355Z,77.00
2018-04-01T03:41:37.170Z,76.62
2018-04-01T03:44:04.971Z,76.87
2018-04-01T03:46:32.799Z,76.50
2018-04-01T03:49:00.626Z,76.63
2018-04-01T03:51:28.828Z,76.42
2018-04-01T03:53:56.655Z,76.47
2018-04-01T03:56:24.455Z,76.36
2018-04-01T03:58:52.259Z,76.10
2018-04-01T04:01:20.066Z,75.89
2018-04-01T04:03:48.033Z,76.35
2018-04-01T04:06:15.995Z,76.50
2018-04-01T04:08:43.563Z,76.33
2018-04-01T04:11:11.377Z,76.33
2018-04-01T04:13:39.230Z,76.02
2018-04-01T04:16:09.172Z,75.74
2018-04-01T04:18:36.969Z,75.90
2018-04-01T04:21:05.171Z,76.00
2018-04-01T04:23:33.358Z,76.19
2018-04-01T04:26:01.173Z,75.68
2018-04-01T04:28:28.955Z,75.51
2018-04-01T04:30:57.156Z,75.40
2018-04-01T04:33:24.958Z,74.96
2018-04-01T04:35:52.771Z,75.04
2018-04-01T04:38:20.963Z,75.42
2018-04-01T04:40:48.779Z,75.52
2018-04-01T04:43:16.575Z,75.76
2018-04-01T04:45:44.807Z,75.66
2018-04-01T04:48:12.605Z,75.48
2018-04-01T04:50:40.392Z,75.78
2018-04-01T04:53:08.201Z,76.12
2018-04-01T04:55:35.808Z,76.22
2018-04-01T04:58:04.000Z,76.16
2018-04-01T05:00:31.807Z,76.36
2018-04-01T05:02:59.798Z,76.42
2018-04-01T05:05:27.582Z,76.32
2018-04-01T05:07:55.781Z,76.39
2018-04-01T05:10:23.578Z,76.01
2018-04-01T05:12:51.375Z,76.09
2018-04-01T05:15:19.213Z,76.22
2018-04-01T05:17:47.009Z,76.28
2018-04-01T05:20:14.578Z,76.60
2018-04-01T05:22:42.795Z,76.40
2018-04-01T05:25:10.602Z,76.50
2018-04-01T05:27:38.399Z,76.48
2018-04-01T05:30:06.635Z,76.53
2018-04-01T05:32:34.430Z,76.36
2018-04-01T05:35:02.633Z,76.19
2018-04-01T05:37:30.636Z,76.29
2018-04-01T05:39:58.448Z,75.99
2018-04-01T05:42:26.642Z,76.11
2018-04-01T05:44:54.452Z,75.72
2018-04-01T05:47:22.254Z,76.00
2018-04-01T05:49:50.471Z,75.44
2018-04-01T05:52:18.325Z,75.90
2018-04-01T05:54:46.142Z,75.71
2018-04-01T05:57:13.942Z,75.64
2018-04-01T05:59:41.736Z,75.69
2018-04-01T06:02:09.545Z,75.63
2018-04-01T06:04:37.388Z,75.46
2018-04-01T06:07:05.203Z,75.60
2018-04-01T06:09:33.007Z,75.40
2018-04-01T06:12:00.581Z,75.69
2018-04-01T06:14:28.408Z,75.77
2018-04-01T06:16:56.211Z,75.63
2018-04-01T06:19:24.029Z,75.69
2018-04-01T06:21:51.826Z,75.40
2018-04-01T06:24:19.802Z,75.41
2018-04-01T06:26:47.611Z,75.30
2018-04-01T06:29:15.800Z,75.25
2018-04-01T06:31:43.629Z,74.76
2018-04-01T06:34:11.433Z,74.78
2018-04-01T06:36:39.250Z,74.57
2018-04-01T06:39:07.057Z,74.60
2018-04-01T06:41:35.254Z,74.52
2018-04-01T06:44:03.077Z,74.68
2018-04-01T06:46:30.871Z,74.42
2018-04-01T06:48:58.683Z,74.90
2018-04-01T06:51:26.501Z,74.59
2018-04-01T06:53:54.311Z,74.09
2018-04-01T06:56:22.124Z,73.56
2018-04-01T06:58:49.972Z,73.25
2018-04-01T07:01:17.766Z,72.67
2018-04-01T07:03:45.559Z,71.05
2018-04-01T07:06:13.142Z,70.96
2018-04-01T07:08:40.951Z,68.81
2018-04-01T07:11:09.135Z,65.21
2018-04-01T07:13:36.939Z,62.55
2018-04-01T07:16:04.742Z,64.34
2018-04-01T07:18:32.953Z,65.43
2018-04-01T07:21:00.752Z,66.60
2018-04-01T07:23:28.553Z,67.95
2018-04-01T07:25:56.743Z,68.45
2018-04-01T07:28:24.567Z,67.63
2018-04-01T07:30:52.369Z,67.92
2018-04-01T07:33:20.557Z,68.15
2018-04-01T07:35:48.347Z,68.75
2018-04-01T07:38:16.151Z,68.55
2018-04-01T07:40:44.151Z,69.75
2018-04-01T07:43:11.953Z,69.46
2018-04-01T07:45:39.758Z,70.58
2018-04-01T07:48:07.551Z,70.38
2018-04-01T07:50:35.357Z,70.21
2018-04-01T07:53:02.921Z,70.18
2018-04-01T07:55:30.719Z,70.54
2018-04-01T07:57:58.527Z,69.72
2018-04-01T08:00:26.313Z,66.42
2018-04-01T08:02:54.159Z,65.14
2018-04-01T08:05:21.943Z,64.17
2018-04-01T08:07:55.131Z,63.85
2018-04-01T08:10:22.960Z,63.72
2018-04-01T08:12:50.777Z,63.12
2018-04-01T08:15:18.781Z,63.92
2018-04-01T08:17:46.983Z,65.54
2018-04-01T08:20:14.847Z,65.93
2018-04-01T08:22:42.423Z,64.56
2018-04-01T08:25:10.267Z,65.26
2018-04-01T08:27:38.059Z,66.13
2018-04-01T08:30:05.867Z,65.92
2018-04-01T08:32:33.711Z,66.31
2018-04-01T08:35:01.553Z,65.22
2018-04-01T08:37:29.344Z,65.74
2018-04-01T08:39:56.955Z,66.91
2018-04-01T08:42:24.775Z,67.43
2018-04-01T08:44:52.588Z,66.73
2018-04-01T08:47:20.783Z,67.31
2018-04-01T08:49:48.564Z,68.01
2018-04-01T08:52:16.399Z,68.37
2018-04-01T08:54:44.211Z,67.87
2018-04-01T08:57:12.026Z,67.54
2018-04-01T08:59:39.832Z,66.32
2018-04-01T09:02:07.645Z,67.14
2018-04-01T09:08:12.647Z,66.98
2018-04-01T09:10:40.464Z,67.05
2018-04-01T09:13:08.656Z,66.90
2018-04-01T09:15:36.505Z,66.63
2018-04-01T09:18:04.325Z,66.51
2018-04-01T09:20:32.177Z,66.31
2018-04-01T09:23:00.010Z,65.63
2018-04-01T09:25:28.207Z,65.55
2018-04-01T09:27:56.009Z,65.41
2018-04-01T09:30:23.993Z,65.04
2018-04-01T09:32:51.810Z,66.21
2018-04-01T09:35:19.685Z,66.69
2018-04-01T09:37:47.532Z,65.71
2018-04-01T09:40:15.587Z,69.82
2018-04-01T09:42:43.781Z,72.59
2018-04-01T09:45:11.634Z,72.80
2018-04-01T09:47:40.113Z,73.20
2018-04-01T09:50:08.321Z,74.27
2018-04-01T09:52:36.207Z,72.31
2018-04-01T09:55:04.015Z,71.69
2018-04-01T09:57:31.979Z,71.77
2018-04-01T09:59:59.787Z,71.84
2018-04-01T10:02:29.575Z,73.09
2018-04-01T10:05:17.977Z,70.89
2018-04-01T10:07:47.677Z,70.29
2018-04-01T10:10:17.405Z,70.05
2018-04-01T10:12:46.899Z,68.48
2018-04-01T10:15:16.439Z,67.11
2018-04-01T10:17:46.155Z,66.25
2018-04-01T10:20:16.084Z,65.56
2018-04-01T10:22:46.016Z,65.99
2018-04-01T10:25:15.229Z,66.31
2018-04-01T10:27:45.347Z,65.13
2018-04-01T10:30:14.890Z,65.55
2018-04-01T10:32:44.402Z,67.13
2018-04-01T10:35:14.155Z,67.44
2018-04-01T10:37:43.644Z,66.88
2018-04-01T10:40:13.552Z,67.51
2018-04-01T10:42:44.209Z,69.23
2018-04-01T10:45:13.695Z,69.21
2018-04-01T10:47:43.585Z,71.53
2018-04-01T10:50:13.079Z,72.00
2018-04-01T10:52:42.571Z,72.28
2018-04-01T10:55:10.409Z,72.15
2018-04-01T10:57:38.445Z,68.25
2018-04-01T11:00:06.665Z,68.49
2018-04-01T11:02:34.528Z,67.92
2018-04-01T11:05:02.354Z,65.59
2018-04-01T11:07:30.577Z,63.66
2018-04-01T11:09:58.424Z,62.19
2018-04-01T11:12:26.836Z,61.65
2018-04-01T11:14:54.659Z,61.88
2018-04-01T11:17:22.895Z,60.53
2018-04-01T11:19:51.254Z,61.10
2018-04-01T11:22:18.828Z,59.97
2018-04-01T11:24:46.636Z,60.48
2018-04-01T11:27:14.849Z,60.08
2018-04-01T11:29:42.708Z,58.31
2018-04-01T11:32:10.526Z,60.27
2018-04-01T11:34:38.327Z,60.76
2018-04-01T11:37:06.150Z,63.31
2018-04-01T11:39:34.313Z,66.96
2018-04-01T11:42:02.142Z,69.57
2018-04-01T11:44:29.964Z,71.34
2018-04-01T11:46:57.792Z,74.42
2018-04-01T11:49:25.643Z,74.59
2018-04-01T11:51:53.630Z,75.01
2018-04-01T11:54:21.552Z,75.54
2018-04-01T11:56:49.789Z,74.75
2018-04-01T11:59:17.791Z,73.81
2018-04-01T12:01:46.023Z,75.15
2018-04-01T12:04:13.858Z,75.60
2018-04-01T12:06:41.664Z,74.33
2018-04-01T12:09:09.475Z,71.76
2018-04-01T12:11:37.664Z,72.30
2018-04-01T12:14:05.484Z,71.30
2018-04-01T12:16:33.308Z,69.12
2018-04-01T12:19:01.116Z,66.90
2018-04-01T12:21:28.922Z,66.80
2018-04-01T12:23:56.973Z,65.54
2018-04-01T12:26:25.176Z,64.02
2018-04-01T12:28:52.997Z,65.90
2018-04-01T12:31:21.006Z,63.27
2018-04-01T12:33:48.889Z,64.87
2018-04-01T12:36:16.693Z,64.28
2018-04-01T12:38:44.514Z,63.17
2018-04-01T12:41:12.313Z,63.85
2018-04-01T12:43:40.118Z,63.72
2018-04-01T12:46:08.634Z,62.06
2018-04-01T12:48:36.424Z,63.79
2018-04-01T12:51:04.238Z,64.60
2018-04-01T12:53:32.462Z,63.12
2018-04-01T12:56:00.276Z,63.28
2018-04-01T12:58:28.479Z,64.29
2018-04-01T13:00:56.306Z,64.69
2018-04-01T13:03:24.502Z,62.75
2018-04-01T13:05:52.506Z,63.30
2018-04-01T13:08:20.305Z,63.93
2018-04-01T13:10:48.101Z,63.36
2018-04-01T13:13:16.288Z,65.74
2018-04-01T13:15:44.126Z,66.86
2018-04-01T13:18:11.922Z,69.19
2018-04-01T13:20:39.734Z,70.10
2018-04-01T13:23:07.564Z,72.54
2018-04-01T13:25:35.388Z,73.71
2018-04-01T13:28:03.190Z,74.20
2018-04-01T13:30:30.974Z,73.57
2018-04-01T13:32:59.112Z,74.16
2018-04-01T13:35:27.296Z,74.72
2018-04-01T13:37:55.173Z,75.68
2018-04-01T13:40:23.004Z,74.20
2018-04-01T13:42:50.803Z,72.78
2018-04-01T13:45:18.622Z,74.27
2018-04-01T13:47:46.440Z,73.89
2018-04-01T13:50:14.002Z,74.16
2018-04-01T13:52:41.816Z,73.25
2018-04-01T13:55:09.387Z,72.09
2018-04-01T13:57:37.354Z,72.28
2018-04-01T14:00:05.548Z,71.08
2018-04-01T14:02:33.734Z,72.20
2018-04-01T14:05:01.522Z,73.25
2018-04-01T14:07:29.315Z,72.42
2018-04-01T14:09:57.132Z,72.17
2018-04-01T14:12:24.957Z,72.04
2018-04-01T14:14:52.786Z,72.38
2018-04-01T14:17:20.596Z,72.50
2018-04-01T14:19:48.402Z,72.19
2018-04-01T14:22:16.214Z,72.30
2018-04-01T14:24:44.033Z,72.46
2018-04-01T14:27:11.850Z,73.74
2018-04-01T14:29:40.124Z,72.87
2018-04-01T14:32:07.918Z,73.03
2018-04-01T14:34:36.136Z,75.87
2018-04-01T14:37:03.954Z,76.28
2018-04-01T14:39:32.164Z,76.95
2018-04-01T14:41:59.965Z,77.29
2018-04-01T14:44:27.778Z,76.81
2018-04-01T14:46:55.588Z,76.90
2018-04-01T14:49:23.389Z,76.58
2018-04-01T14:51:51.581Z,75.66
2018-04-01T14:54:19.381Z,76.09
2018-04-01T14:56:47.173Z,75.37
2018-04-01T14:59:15.009Z,75.03
2018-04-01T15:01:42.883Z,74.81
2018-04-01T15:04:10.678Z,73.00
2018-04-01T15:13:24.606Z,73.95
2018-04-01T15:15:52.413Z,72.25
2018-04-01T15:18:20.222Z,71.61
2018-04-01T15:20:48.203Z,71.77
2018-04-01T15:23:16.014Z,71.35
2018-04-01T15:25:43.824Z,71.43
2018-04-01T15:28:12.019Z,71.17
2018-04-01T15:30:39.820Z,69.88
2018-04-01T15:33:07.631Z,68.78
2018-04-01T15:35:35.862Z,69.06
2018-04-01T15:38:03.676Z,69.68
2018-04-01T15:40:31.507Z,68.84
2018-04-01T15:42:59.337Z,68.89
2018-04-01T15:45:27.135Z,68.82
2018-04-01T15:47:54.929Z,67.23
2018-04-01T15:50:23.160Z,67.83
2018-04-01T15:52:50.946Z,67.17
2018-04-01T15:55:18.762Z,67.14
2018-04-01T15:57:46.571Z,67.72
2018-04-01T16:00:14.377Z,66.88
2018-04-01T16:02:42.629Z,68.00
2018-04-01T16:05:10.569Z,68.41
2018-04-01T16:07:38.426Z,68.24
2018-04-01T16:10:06.658Z,68.53
2018-04-01T16:12:34.861Z,68.23
2018-04-01T16:15:02.743Z,67.91
2018-04-01T16:17:30.735Z,67.56
2018-04-01T16:19:59.447Z,68.77
2018-04-01T16:22:27.675Z,68.76
2018-04-01T16:24:55.487Z,68.82
2018-04-01T16:27:23.322Z,67.78
2018-04-01T16:29:51.225Z,68.14
2018-04-01T16:32:19.423Z,67.58
2018-04-01T16:34:47.430Z,67.84
2018-04-01T16:37:15.243Z,68.52
2018-04-01T16:39:43.456Z,68.71
2018-04-01T16:42:11.274Z,68.31
2018-04-01T16:44:39.063Z,68.57
2018-04-01T16:47:07.452Z,68.73
2018-04-01T16:49:35.259Z,69.55
2018-04-01T16:52:03.112Z,69.51
2018-04-01T16:54:30.921Z,69.34
2018-04-01T16:56:59.158Z,69.13
2018-04-01T16:59:26.976Z,69.51
2018-04-01T17:01:55.364Z,69.54
2018-04-01T17:04:23.513Z,68.96
2018-04-01T17:06:51.710Z,69.44
2018-04-01T17:09:19.598Z,68.72
2018-04-01T17:11:47.545Z,68.33
2018-04-01T17:14:15.351Z,67.81
2018-04-01T17:16:43.466Z,67.62
2018-04-01T17:19:11.460Z,67.72
2018-04-01T17:21:39.271Z,67.70
2018-04-01T17:24:07.085Z,67.29
2018-04-01T17:26:35.285Z,67.64
2018-04-01T17:29:03.094Z,66.81
2018-04-01T17:31:30.691Z,66.72
2018-04-01T17:33:58.787Z,66.72
2018-04-01T17:36:26.601Z,66.96
2018-04-01T17:38:54.529Z,67.47
2018-04-01T17:41:22.397Z,67.39
2018-04-01T17:43:50.772Z,66.65
2018-04-01T17:46:18.567Z,66.66
2018-04-01T17:48:46.569Z,66.60
2018-04-01T17:51:14.767Z,66.74
2018-04-01T17:53:42.579Z,66.86
2018-04-01T17:56:10.385Z,66.58
2018-04-01T17:58:38.588Z,66.33
2018-04-01T18:01:06.393Z,66.72
2018-04-01T18:03:34.207Z,66.52
2018-04-01T18:06:02.031Z,66.18
2018-04-01T18:08:29.817Z,66.03
2018-04-01T18:10:58.013Z,65.91
2018-04-01T18:13:25.849Z,66.06
2018-04-01T18:15:54.039Z,66.23
2018-04-01T18:18:22.343Z,66.10
2018-04-01T18:20:50.133Z,67.13
2018-04-01T18:23:17.951Z,67.83
2018-04-01T18:25:45.787Z,67.84
2018-04-01T18:28:13.769Z,67.87
2018-04-01T18:30:41.977Z,67.28
2018-04-01T18:33:10.523Z,66.33
2018-04-01T18:35:38.732Z,66.24
2018-04-01T18:38:06.769Z,65.61
2018-04-01T18:40:35.006Z,65.95
2018-04-01T18:43:49.150Z,65.86
2018-04-01T18:46:16.968Z,65.64
2018-04-01T18:48:45.165Z,66.34
2018-04-01T18:51:12.965Z,66.78
2018-04-01T18:53:40.541Z,67.16
2018-04-01T18:56:08.355Z,67.46
2018-04-01T18:58:35.943Z,67.32
2018-04-01T19:01:03.787Z,67.07
2018-04-01T19:03:32.158Z,65.82
2018-04-01T19:05:59.975Z,66.09
2018-04-01T19:08:27.796Z,66.05
2018-04-01T19:10:55.602Z,66.30
2018-04-01T19:13:23.407Z,66.27
2018-04-01T19:15:51.599Z,65.39
2018-04-01T19:18:21.162Z,64.92
2018-04-01T19:20:50.659Z,64.81
2018-04-01T19:23:20.148Z,64.39
2018-04-01T19:25:49.621Z,64.72
2018-04-01T19:28:19.329Z,64.94
2018-04-01T19:30:48.836Z,65.22
2018-04-01T19:33:18.340Z,64.56
2018-04-01T19:35:48.139Z,63.56
2018-04-01T19:38:18.267Z,63.94
2018-04-01T19:40:48.159Z,65.13
2018-04-01T19:43:17.422Z,65.58
2018-04-01T19:45:46.937Z,65.77
2018-04-01T19:48:16.435Z,65.92
2018-04-01T19:50:45.929Z,66.33
2018-04-01T19:53:15.442Z,66.52
2018-04-01T19:55:44.700Z,64.86
2018-04-01T19:58:14.579Z,65.22
2018-04-01T20:00:43.834Z,65.29
2018-04-01T20:03:13.333Z,65.26
2018-04-01T20:05:42.829Z,65.37
2018-04-01T20:08:12.750Z,65.53
2018-04-01T20:10:42.258Z,65.47
2018-04-01T20:13:12.494Z,65.27
2018-04-01T20:15:41.994Z,64.87
2018-04-01T20:18:11.307Z,62.99
2018-04-01T20:20:40.820Z,63.49
2018-04-01T20:23:10.315Z,63.68
2018-04-01T20:25:39.856Z,63.83
2018-04-01T20:28:09.520Z,63.91
2018-04-01T20:30:39.022Z,63.79
2018-04-01T20:33:08.804Z,63.91
2018-04-01T20:35:38.694Z,64.00
2018-04-01T20:38:08.196Z,64.60
2018-04-01T20:40:37.713Z,64.93
2018-04-01T20:43:07.184Z,65.76
2018-04-01T20:45:36.704Z,66.14
2018-04-01T20:48:06.219Z,66.66
2018-04-01T20:50:35.724Z,66.78
2018-04-01T20:53:05.000Z,66.87
2018-04-01T20:55:34.512Z,66.68
2018-04-01T20:58:04.068Z,66.81
2018-04-01T21:00:33.953Z,67.02
2018-04-01T21:03:03.448Z,67.24
2018-04-01T21:05:32.938Z,67.18
2018-04-01T21:08:02.444Z,67.11
2018-04-01T21:10:31.928Z,67.07
2018-04-01T21:13:01.456Z,67.22
2018-04-01T21:15:30.957Z,67.54
2018-04-01T21:18:00.455Z,67.60
2018-04-01T21:20:29.623Z,67.72
2018-04-01T21:22:59.508Z,67.62
2018-04-01T21:25:29.015Z,67.47
2018-04-01T21:27:58.708Z,67.41
2018-04-01T21:30:28.213Z,67.16
2018-04-01T21:32:57.690Z,67.60
2018-04-01T21:35:27.196Z,67.99
2018-04-01T21:37:56.690Z,68.29
2018-04-01T21:40:26.284Z,68.61
2018-04-01T21:42:56.153Z,68.39
2018-04-01T21:45:25.636Z,68.32
2018-04-01T21:47:55.118Z,68.53
2018-04-01T21:50:24.624Z,68.44
2018-04-01T21:52:54.118Z,68.14
2018-04-01T21:55:23.638Z,68.37
2018-04-01T21:57:53.148Z,68.49
2018-04-01T22:00:22.854Z,68.45
2018-04-01T22:02:52.370Z,68.46
2018-04-01T22:05:21.881Z,68.53
2018-04-01T22:07:51.368Z,68.69
2018-04-01T22:10:20.898Z,68.71
2018-04-01T22:12:50.404Z,68.71
2018-04-01T22:15:19.900Z,68.97
2018-04-01T22:17:49.399Z,69.46
2018-04-01T22:20:18.884Z,69.76
2018-04-01T22:23:16.668Z,69.51
2018-04-01T22:25:45.936Z,70.02
2018-04-01T22:28:15.432Z,69.80
2018-04-01T22:30:44.910Z,69.65
2018-04-01T22:33:14.451Z,69.80
2018-04-01T22:35:43.933Z,70.08
2018-04-01T22:38:13.414Z,70.50
2018-04-01T22:40:42.912Z,70.73
2018-04-01T22:43:12.400Z,70.71
2018-04-01T22:45:42.345Z,70.77
2018-04-01T22:48:12.022Z,70.99
2018-04-01T22:50:41.924Z,70.89
2018-04-01T22:53:11.192Z,70.97
2018-04-01T22:55:40.683Z,70.79
2018-04-01T22:58:10.186Z,71.24
2018-04-01T23:00:39.678Z,70.92
2018-04-01T23:03:09.172Z,71.30
2018-04-01T23:05:38.648Z,71.53
2018-04-01T23:08:07.954Z,71.84
2018-04-01T23:10:37.826Z,71.69
2018-04-01T23:13:07.316Z,71.89
2018-04-01T23:15:37.006Z,72.39
2018-04-01T23:18:06.544Z,72.27
2018-04-01T23:20:36.028Z,72.28
2018-04-01T23:23:05.304Z,72.71
2018-04-01T23:25:35.194Z,72.82
2018-04-01T23:28:04.702Z,72.10
2018-04-01T23:30:34.637Z,72.02
2018-04-01T23:33:04.316Z,72.36
2018-04-01T23:35:33.796Z,72.60
2018-04-01T23:38:03.272Z,72.76
2018-04-01T23:40:32.772Z,72.75
2018-04-01T23:43:02.264Z,72.67
2018-04-01T23:45:32.202Z,72.69
2018-04-01T23:48:01.618Z,72.81
2018-04-01T23:50:30.906Z,72.49
2018-04-01T23:53:00.441Z,72.72
2018-04-01T23:55:29.920Z,72.83
2018-04-01T23:57:59.408Z,73.09
